createdAt,value
2023-04-28T00:00:32.444Z,73.9419
2023-04-28T00:01:35.420Z,73.7906
2023-04-28T00:02:38.430Z,72.9398
2023-04-28T00:03:41.524Z,73.2676
2023-04-28T00:04:44.402Z,72.9659
2023-04-28T00:05:47.234Z,73.2298
2023-04-28T00:06:50.196Z,72.8997
2023-04-28T00:07:53.141Z,72.9490
2023-04-28T00:08:56.104Z,73.4637
2023-04-28T00:09:59.064Z,74.2015
2023-04-28T00:11:02.003Z,74.3705
2023-04-28T00:12:04.982Z,74.0464
2023-04-28T00:13:07.939Z,74.1969
2023-04-28T00:14:10.866Z,74.0487
2023-04-28T00:15:13.845Z,74.0495
2023-04-28T00:16:16.803Z,74.0498
2023-04-28T00:17:19.781Z,74.1121
2023-04-28T00:18:22.815Z,74.0685
2023-04-28T00:19:25.642Z,74.5219
2023-04-28T00:20:28.580Z,74.3697
2023-04-28T00:21:31.551Z,74.0106
2023-04-28T00:22:34.512Z,73.8370
2023-04-28T00:23:37.473Z,74.0493
2023-04-28T00:24:40.423Z,73.2346
2023-04-28T00:25:43.398Z,73.1492
2023-04-28T00:26:46.315Z,73.4968
2023-04-28T00:27:49.362Z,73.9396
2023-04-28T00:28:52.223Z,74.0669
2023-04-28T00:29:55.215Z,74.1423
2023-04-28T00:30:58.267Z,74.7000
2023-04-28T00:32:01.161Z,75.1989
2023-04-28T00:33:04.106Z,74.4457
2023-04-28T00:34:07.015Z,73.9741
2023-04-28T00:35:09.962Z,73.5112
2023-04-28T00:36:12.924Z,73.9303
2023-04-28T00:37:16.013Z,73.3406
2023-04-28T00:38:18.832Z,73.1789
2023-04-28T00:39:21.785Z,73.2109
2023-04-28T00:40:24.733Z,73.3982
2023-04-28T00:41:27.729Z,74.0220
2023-04-28T00:42:30.655Z,75.6081
2023-04-28T00:43:33.612Z,76.5371
2023-04-28T00:44:36.585Z,77.3680
2023-04-28T00:45:39.533Z,77.6441
2023-04-28T00:46:42.466Z,77.5114
2023-04-28T00:47:45.435Z,78.1183
2023-04-28T00:48:48.444Z,77.6999
2023-04-28T00:49:51.381Z,77.6398
2023-04-28T00:50:54.290Z,77.8635
2023-04-28T00:51:57.278Z,77.7624
2023-04-28T00:53:00.183Z,77.5443
2023-04-28T00:54:03.149Z,76.9880
2023-04-28T00:55:06.086Z,77.0084
2023-04-28T00:56:09.020Z,77.6537
2023-04-28T00:57:11.997Z,77.6931
2023-04-28T00:58:14.928Z,78.5465
2023-04-28T00:59:17.872Z,78.9875
2023-04-28T01:00:20.833Z,79.0727
2023-04-28T01:01:23.813Z,79.4054
2023-04-28T01:02:26.948Z,78.5853
2023-04-28T01:03:29.743Z,78.6813
2023-04-28T01:04:32.652Z,79.0446
2023-04-28T01:05:35.556Z,78.8764
2023-04-28T01:06:38.539Z,78.6822
2023-04-28T01:07:41.489Z,79.2390
2023-04-28T01:08:44.406Z,79.8953
2023-04-28T01:09:47.351Z,79.5463
2023-04-28T01:10:50.304Z,79.5816
2023-04-28T01:11:53.237Z,79.8141
2023-04-28T01:12:56.218Z,79.5878
2023-04-28T01:13:59.142Z,79.0822
2023-04-28T01:15:02.109Z,79.4224
2023-04-28T01:16:05.078Z,79.5681
2023-04-28T01:17:08.001Z,79.2697
2023-04-28T01:18:10.958Z,79.2578
2023-04-28T01:19:13.917Z,78.7788
2023-04-28T01:20:16.864Z,78.0380
2023-04-28T01:21:19.806Z,77.8485
2023-04-28T01:22:22.773Z,78.2274
2023-04-28T01:23:25.701Z,78.0460
2023-04-28T01:24:28.685Z,78.7259
2023-04-28T01:25:31.643Z,79.2748
2023-04-28T01:26:34.586Z,78.7232
2023-04-28T01:27:37.557Z,79.0341
2023-04-28T01:28:40.475Z,79.0524
2023-04-28T01:29:43.439Z,78.9300
2023-04-28T01:30:46.386Z,79.0711
2023-04-28T01:31:49.391Z,79.9130
2023-04-28T01:32:52.292Z,80.9206
2023-04-28T01:33:55.241Z,80.6762
2023-04-28T01:34:58.215Z,80.4517
2023-04-28T01:36:01.140Z,80.4379
2023-04-28T01:37:04.132Z,80.0674
2023-04-28T01:38:07.045Z,80.2317
2023-04-28T01:39:10.009Z,80.2922
2023-04-28T01:40:13.006Z,80.2720
2023-04-28T01:41:15.913Z,80.2287
2023-04-28T01:42:18.901Z,80.1508
2023-04-28T01:43:21.838Z,80.5806
2023-04-28T01:44:24.822Z,79.7562
2023-04-28T01:45:27.745Z,79.7492
2023-04-28T01:46:30.677Z,80.0438
2023-04-28T01:47:33.710Z,80.2058
2023-04-28T01:48:36.637Z,80.1276
2023-04-28T01:49:39.526Z,80.0073
2023-04-28T01:50:42.445Z,80.1742
2023-04-28T01:51:45.450Z,80.2447
2023-04-28T01:52:48.323Z,80.5210
2023-04-28T01:53:51.320Z,80.5067
2023-04-28T01:54:54.246Z,80.6034
2023-04-28T01:55:57.187Z,80.6111
2023-04-28T01:57:00.133Z,80.9672
2023-04-28T01:58:03.060Z,81.1264
2023-04-28T01:59:06.004Z,80.4175
2023-04-28T02:00:09.106Z,80.7242
2023-04-28T02:01:12.004Z,80.3630
2023-04-28T02:02:14.895Z,80.0454
2023-04-28T02:03:17.907Z,79.8442
2023-04-28T02:04:20.828Z,80.5531
2023-04-28T02:05:23.686Z,80.6268
2023-04-28T02:06:26.639Z,80.5194
2023-04-28T02:07:29.610Z,80.7299
2023-04-28T02:08:32.587Z,80.3445
2023-04-28T02:09:35.528Z,80.0286
2023-04-28T02:10:38.428Z,80.0149
2023-04-28T02:11:41.369Z,79.7003
2023-04-28T02:12:44.355Z,79.6292
2023-04-28T02:13:47.271Z,79.6932
2023-04-28T02:14:50.234Z,80.2385
2023-04-28T02:15:53.182Z,80.0992
2023-04-28T02:16:56.106Z,79.9027
2023-04-28T02:17:59.153Z,79.7520
2023-04-28T02:19:02.024Z,79.5306
2023-04-28T02:20:05.016Z,79.9959
2023-04-28T02:21:07.912Z,80.5011
2023-04-28T02:22:10.864Z,79.9702
2023-04-28T02:23:13.822Z,79.3990
2023-04-28T02:24:17.009Z,79.3535
2023-04-28T02:25:19.743Z,79.0419
2023-04-28T02:26:22.731Z,79.2201
2023-04-28T02:27:25.621Z,79.8081
2023-04-28T02:28:28.563Z,80.4119
2023-04-28T02:29:31.520Z,80.4858
2023-04-28T02:30:34.629Z,80.3785
2023-04-28T02:31:37.457Z,80.1573
2023-04-28T02:32:40.446Z,80.1380
2023-04-28T02:33:43.347Z,80.4368
2023-04-28T02:34:46.264Z,80.5260
2023-04-28T02:35:49.284Z,80.3058
2023-04-28T02:36:52.164Z,80.6441
2023-04-28T02:37:55.124Z,81.4720
2023-04-28T02:38:58.074Z,81.2686
2023-04-28T02:40:01.044Z,81.0782
2023-04-28T02:41:03.981Z,80.7666
2023-04-28T02:42:06.942Z,81.2260
2023-04-28T02:43:09.869Z,81.0809
2023-04-28T02:44:12.888Z,81.0833
2023-04-28T02:45:15.791Z,81.1018
2023-04-28T02:46:18.755Z,80.4404
2023-04-28T02:47:21.666Z,80.1440
2023-04-28T02:48:24.614Z,80.6194
2023-04-28T02:49:27.684Z,80.4918
2023-04-28T02:50:30.552Z,80.0987
2023-04-28T02:51:33.487Z,80.4727
2023-04-28T02:52:36.437Z,80.5578
2023-04-28T02:53:39.367Z,80.3715
2023-04-28T02:54:42.389Z,81.0447
2023-04-28T02:55:45.315Z,81.0131
2023-04-28T02:56:48.249Z,80.7374
2023-04-28T02:57:51.204Z,80.7607
2023-04-28T02:58:54.177Z,80.6897
2023-04-28T02:59:57.116Z,80.6645
2023-04-28T03:01:00.253Z,80.7361
2023-04-28T03:02:03.106Z,80.8732
2023-04-28T03:03:06.201Z,80.9188
2023-04-28T03:04:09.036Z,80.8989
2023-04-28T03:05:11.907Z,81.0087
2023-04-28T03:06:14.906Z,81.4561
2023-04-28T03:07:17.826Z,81.4558
2023-04-28T03:08:20.839Z,80.9698
2023-04-28T03:09:23.733Z,81.2392
2023-04-28T03:10:26.694Z,81.2996
2023-04-28T03:11:29.671Z,81.0779
2023-04-28T03:12:32.600Z,81.6714
2023-04-28T03:13:35.560Z,81.9459
2023-04-28T03:14:38.546Z,82.7262
2023-04-28T03:15:41.485Z,82.2512
2023-04-28T03:16:44.462Z,82.4135
2023-04-28T03:17:47.371Z,81.9569
2023-04-28T03:18:50.323Z,82.3643
2023-04-28T03:19:53.281Z,82.1588
2023-04-28T03:20:56.242Z,82.2442
2023-04-28T03:21:59.190Z,81.9785
2023-04-28T03:23:02.211Z,81.7918
2023-04-28T03:24:05.946Z,81.7534
2023-04-28T03:25:08.144Z,81.9852
2023-04-28T03:26:11.073Z,82.1059
2023-04-28T03:27:14.083Z,82.5355
2023-04-28T03:28:17.000Z,82.3136
2023-04-28T03:29:19.941Z,81.9177
2023-04-28T03:30:22.911Z,81.6391
2023-04-28T03:31:25.908Z,81.3981
2023-04-28T03:32:28.870Z,81.7061
2023-04-28T03:33:31.766Z,81.6302
2023-04-28T03:34:34.745Z,81.8794
2023-04-28T03:35:37.688Z,81.5440
2023-04-28T03:36:40.620Z,81.5414
2023-04-28T03:37:43.583Z,82.1776
2023-04-28T03:38:46.519Z,82.2896
2023-04-28T03:39:49.495Z,82.5000
2023-04-28T03:40:52.423Z,82.3748
2023-04-28T03:41:55.384Z,82.9194
2023-04-28T03:42:58.371Z,82.9280
2023-04-28T03:44:01.302Z,82.8842
2023-04-28T03:45:04.282Z,82.8329
2023-04-28T03:46:07.506Z,83.1388
2023-04-28T03:47:10.145Z,82.6311
2023-04-28T03:48:13.151Z,82.6814
2023-04-28T03:49:16.069Z,83.0828
2023-04-28T03:50:19.004Z,82.5224
2023-04-28T03:51:21.973Z,82.3599
2023-04-28T03:52:24.897Z,82.2703
2023-04-28T03:53:28.069Z,82.3813
2023-04-28T03:54:30.807Z,82.6848
2023-04-28T03:55:33.765Z,82.4903
2023-04-28T03:56:36.713Z,82.2569
2023-04-28T03:57:39.743Z,82.2939
2023-04-28T03:58:42.657Z,82.4774
2023-04-28T03:59:45.597Z,82.5812
2023-04-28T04:00:48.646Z,82.5736
2023-04-28T04:01:51.504Z,82.3083
2023-04-28T04:02:54.554Z,82.2593
2023-04-28T04:03:57.704Z,81.9879
2023-04-28T04:05:00.895Z,82.3575
2023-04-28T04:06:03.308Z,82.1414
2023-04-28T04:07:06.240Z,82.6456
2023-04-28T04:08:09.503Z,82.0033
2023-04-28T04:09:12.142Z,82.1770
2023-04-28T04:10:15.114Z,82.4954
2023-04-28T04:11:18.058Z,82.0864
2023-04-28T04:12:20.998Z,81.9865
2023-04-28T04:13:23.958Z,82.3438
2023-04-28T04:14:26.910Z,82.3022
2023-04-28T04:15:29.866Z,82.5342
2023-04-28T04:16:32.823Z,82.4595
2023-04-28T04:17:35.755Z,82.8478
2023-04-28T04:18:38.722Z,83.1120
2023-04-28T04:19:41.704Z,83.3794
2023-04-28T04:20:44.698Z,83.5245
2023-04-28T04:21:47.589Z,83.8650
2023-04-28T04:22:50.578Z,84.1474
2023-04-28T04:23:53.621Z,84.0580
2023-04-28T04:24:56.474Z,83.9616
2023-04-28T04:25:59.414Z,84.5380
2023-04-28T04:27:02.385Z,83.6076
2023-04-28T04:28:05.493Z,82.9511
2023-04-28T04:29:08.279Z,83.3874
2023-04-28T04:30:11.462Z,83.0257
2023-04-28T04:31:14.375Z,83.3368
2023-04-28T04:32:17.251Z,83.2658
2023-04-28T04:33:20.517Z,82.8699
2023-04-28T04:34:23.034Z,83.0726
2023-04-28T04:35:25.993Z,83.1777
2023-04-28T04:36:28.925Z,82.6093
2023-04-28T04:37:31.880Z,82.7288
2023-04-28T04:38:34.852Z,82.8952
2023-04-28T04:39:37.797Z,82.8903
2023-04-28T04:40:40.710Z,82.9102
2023-04-28T04:41:43.663Z,83.4353
2023-04-28T04:42:46.625Z,83.4255
2023-04-28T04:43:49.567Z,83.3469
2023-04-28T04:44:52.515Z,83.4557
2023-04-28T04:45:55.462Z,83.7648
2023-04-28T04:46:58.494Z,83.4193
2023-04-28T04:48:01.511Z,83.3882
2023-04-28T04:49:04.333Z,82.9807
2023-04-28T04:50:07.256Z,83.2289
2023-04-28T04:51:10.250Z,84.1750
2023-04-28T04:52:13.199Z,83.5940
2023-04-28T04:53:16.582Z,83.1962
2023-04-28T04:54:19.041Z,83.4819
2023-04-28T04:55:22.003Z,83.2929
2023-04-28T04:56:24.957Z,83.4152
2023-04-28T04:57:27.883Z,83.7959
2023-04-28T04:58:30.863Z,82.9624
2023-04-28T04:59:33.802Z,84.0291
2023-04-28T05:00:36.730Z,83.0550
2023-04-28T05:01:39.757Z,83.1741
2023-04-28T05:02:42.687Z,83.2981
2023-04-28T05:03:45.769Z,83.7480
2023-04-28T05:04:48.605Z,84.2326
2023-04-28T05:05:51.473Z,84.5135
2023-04-28T05:06:54.401Z,84.0719
2023-04-28T05:07:57.353Z,84.4035
2023-04-28T05:09:00.409Z,84.0085
2023-04-28T05:10:03.268Z,83.8983
2023-04-28T05:11:06.209Z,83.4451
2023-04-28T05:12:09.154Z,83.5100
2023-04-28T05:13:12.171Z,83.6282
2023-04-28T05:14:15.274Z,83.4883
2023-04-28T05:15:18.113Z,84.2206
2023-04-28T05:16:20.989Z,84.0794
2023-04-28T05:17:23.924Z,83.4056
2023-04-28T05:18:26.845Z,83.2390
2023-04-28T05:19:29.839Z,83.3583
2023-04-28T05:20:32.788Z,83.0734
2023-04-28T05:21:35.681Z,82.7153
2023-04-28T05:22:38.634Z,82.7727
2023-04-28T05:23:41.609Z,82.9294
2023-04-28T05:24:44.537Z,82.4166
2023-04-28T05:25:47.471Z,82.3417
2023-04-28T05:26:50.414Z,82.5926
2023-04-28T05:27:53.468Z,82.6620
2023-04-28T05:28:56.342Z,83.2459
2023-04-28T05:29:59.263Z,83.2625
2023-04-28T05:31:02.206Z,83.2558
2023-04-28T05:32:05.178Z,83.4264
2023-04-28T05:33:08.206Z,83.6575
2023-04-28T05:34:11.132Z,83.4794
2023-04-28T05:35:13.996Z,83.5166
2023-04-28T05:36:16.925Z,83.5143
2023-04-28T05:37:19.913Z,83.5417
2023-04-28T05:38:23.540Z,83.3794
2023-04-28T05:39:25.822Z,83.1268
2023-04-28T05:40:28.717Z,83.0837
2023-04-28T05:41:31.675Z,83.0915
2023-04-28T05:42:34.630Z,82.9603
2023-04-28T05:43:37.569Z,83.4501
2023-04-28T05:44:42.876Z,83.1681
2023-04-28T05:45:43.485Z,82.8256
2023-04-28T05:46:46.498Z,82.7727
2023-04-28T05:47:49.422Z,82.8293
2023-04-28T05:48:52.334Z,83.1456
2023-04-28T05:49:55.276Z,83.4144
2023-04-28T05:50:58.223Z,83.3736
2023-04-28T05:52:01.152Z,83.1637
2023-04-28T05:53:04.111Z,83.1250
2023-04-28T05:54:07.057Z,82.8936
2023-04-28T05:55:09.998Z,82.7197
2023-04-28T05:56:12.942Z,82.9435
2023-04-28T05:57:15.868Z,83.1024
2023-04-28T05:58:18.863Z,83.0526
2023-04-28T05:59:21.783Z,83.0658
2023-04-28T06:00:24.727Z,82.8333
2023-04-28T06:01:27.690Z,82.6642
2023-04-28T06:02:30.773Z,82.5992
2023-04-28T06:03:33.793Z,82.5687
2023-04-28T06:04:36.804Z,83.2580
2023-04-28T06:05:39.894Z,83.0145
2023-04-28T06:06:42.398Z,83.2621
2023-04-28T06:07:45.372Z,83.2809
2023-04-28T06:08:48.292Z,82.8406
2023-04-28T06:09:51.240Z,82.8233
2023-04-28T06:10:54.230Z,82.8163
2023-04-28T06:11:57.354Z,82.4728
2023-04-28T06:13:00.166Z,82.4325
2023-04-28T06:14:03.053Z,82.4825
2023-04-28T06:15:06.108Z,81.9962
2023-04-28T06:16:08.994Z,81.9819
2023-04-28T06:17:11.889Z,81.9184
2023-04-28T06:18:14.846Z,82.1398
2023-04-28T06:19:17.794Z,82.3700
2023-04-28T06:20:20.752Z,82.8478
2023-04-28T06:21:23.722Z,82.8472
2023-04-28T06:22:26.670Z,82.6639
2023-04-28T06:23:29.589Z,82.5480
2023-04-28T06:24:32.592Z,82.7598
2023-04-28T06:25:35.540Z,82.7584
2023-04-28T06:26:38.461Z,82.7546
2023-04-28T06:27:41.397Z,82.8462
2023-04-28T06:28:44.314Z,82.8806
2023-04-28T06:29:47.272Z,83.1253
2023-04-28T06:30:50.246Z,83.0847
2023-04-28T06:31:53.302Z,82.4580
2023-04-28T06:32:56.182Z,82.2082
2023-04-28T06:33:59.047Z,82.4754
2023-04-28T06:35:02.011Z,82.4123
2023-04-28T06:36:04.966Z,82.2602
2023-04-28T06:37:07.960Z,82.5555
2023-04-28T06:38:10.878Z,82.5032
2023-04-28T06:39:13.801Z,82.4512
2023-04-28T06:40:16.755Z,82.3288
2023-04-28T06:41:19.695Z,82.0788
2023-04-28T06:42:22.706Z,82.3636
2023-04-28T06:43:25.714Z,82.8541
2023-04-28T06:44:28.549Z,82.7539
2023-04-28T06:45:31.540Z,82.8450
2023-04-28T06:46:34.479Z,82.4871
2023-04-28T06:47:37.438Z,82.5079
2023-04-28T06:48:40.426Z,82.4316
2023-04-28T06:49:43.309Z,82.3153
2023-04-28T06:50:46.477Z,82.2987
2023-04-28T06:51:49.187Z,81.9156
2023-04-28T06:52:52.144Z,81.7442
2023-04-28T06:53:55.098Z,81.5640
2023-04-28T06:54:58.023Z,82.9168
2023-04-28T06:56:00.983Z,82.7531
2023-04-28T06:57:03.933Z,82.2939
2023-04-28T06:58:06.908Z,82.5105
2023-04-28T06:59:09.863Z,82.3723
2023-04-28T07:00:12.759Z,81.8443
2023-04-28T07:01:15.805Z,81.9299
2023-04-28T07:02:18.743Z,82.0270
2023-04-28T07:03:21.679Z,81.9397
2023-04-28T07:04:24.763Z,82.3009
2023-04-28T07:05:27.494Z,81.5246
2023-04-28T07:06:30.452Z,81.5635
2023-04-28T07:07:33.407Z,82.3344
2023-04-28T07:08:36.335Z,81.8058
2023-04-28T07:09:39.516Z,81.3775
2023-04-28T07:10:42.264Z,81.7530
2023-04-28T07:11:45.173Z,82.1156
2023-04-28T07:12:48.107Z,82.3718
2023-04-28T07:13:51.056Z,82.1397
2023-04-28T07:14:54.062Z,82.4998
2023-04-28T07:15:57.072Z,81.0717
2023-04-28T07:16:59.916Z,80.8112
2023-04-28T07:18:02.957Z,80.7685
2023-04-28T07:19:05.781Z,80.7183
2023-04-28T07:20:08.729Z,80.9934
2023-04-28T07:21:11.898Z,81.3110
2023-04-28T07:22:14.897Z,80.4429
2023-04-28T07:23:17.551Z,80.8806
2023-04-28T07:24:20.502Z,81.1835
2023-04-28T07:25:23.482Z,81.2424
2023-04-28T07:26:26.398Z,82.0356
2023-04-28T07:27:29.368Z,81.8555
2023-04-28T07:28:32.302Z,81.9698
2023-04-28T07:29:35.213Z,82.0357
2023-04-28T07:30:38.185Z,81.7604
2023-04-28T07:31:41.230Z,81.5930
2023-04-28T07:32:44.217Z,81.8577
2023-04-28T07:33:47.087Z,81.7314
2023-04-28T07:34:50.052Z,81.9414
2023-04-28T07:35:53.042Z,81.7846
2023-04-28T07:36:55.967Z,81.5278
2023-04-28T07:37:58.925Z,81.4456
2023-04-28T07:39:01.875Z,82.2825
2023-04-28T07:40:04.888Z,81.8631
2023-04-28T07:41:09.990Z,81.5453
2023-04-28T07:42:10.613Z,81.4446
2023-04-28T07:43:13.566Z,82.5075
2023-04-28T07:44:16.802Z,82.8282
2023-04-28T07:45:19.453Z,82.5280
2023-04-28T07:46:22.487Z,82.3051
2023-04-28T07:47:26.074Z,82.2085
2023-04-28T07:48:28.395Z,82.5249
2023-04-28T07:49:31.231Z,82.0472
2023-04-28T07:50:34.181Z,81.7604
2023-04-28T07:51:37.125Z,81.8900
2023-04-28T07:52:40.065Z,82.3156
2023-04-28T07:53:43.020Z,82.4339
2023-04-28T07:54:45.947Z,82.3299
2023-04-28T07:55:48.993Z,82.3783
2023-04-28T07:56:51.986Z,81.9993
2023-04-28T07:57:54.787Z,81.7365
2023-04-28T07:58:57.818Z,81.8150
2023-04-28T08:00:00.688Z,81.7040
2023-04-28T08:01:03.644Z,81.7684
2023-04-28T08:02:06.667Z,81.5243
2023-04-28T08:03:09.759Z,81.2830
2023-04-28T08:04:12.697Z,81.4809
2023-04-28T08:05:15.632Z,81.4604
2023-04-28T08:06:18.425Z,81.0002
2023-04-28T08:07:21.323Z,81.0637
2023-04-28T08:08:24.268Z,81.4981
2023-04-28T08:09:27.191Z,81.2181
2023-04-28T08:10:30.136Z,80.9911
2023-04-28T08:11:33.088Z,80.8260
2023-04-28T08:12:36.053Z,80.8757
2023-04-28T08:13:38.971Z,81.1776
2023-04-28T08:14:41.919Z,81.6040
2023-04-28T08:15:44.891Z,81.7939
2023-04-28T08:16:47.838Z,81.6183
2023-04-28T08:17:51.080Z,81.4440
2023-04-28T08:18:53.757Z,82.1057
2023-04-28T08:19:56.668Z,81.6840
2023-04-28T08:20:59.603Z,81.6057
2023-04-28T08:22:02.539Z,81.9290
2023-04-28T08:23:05.477Z,81.9479
2023-04-28T08:24:08.432Z,81.6658
2023-04-28T08:25:11.459Z,81.1382
2023-04-28T08:26:14.301Z,81.4665
2023-04-28T08:27:17.291Z,82.5207
2023-04-28T08:28:20.188Z,82.4472
2023-04-28T08:29:23.129Z,82.2637
2023-04-28T08:30:26.075Z,81.6003
2023-04-28T08:31:29.087Z,81.5989
2023-04-28T08:32:31.973Z,81.8691
2023-04-28T08:33:34.925Z,82.1607
2023-04-28T08:34:37.879Z,82.0885
2023-04-28T08:35:40.866Z,82.5409
2023-04-28T08:36:43.794Z,82.4417
2023-04-28T08:37:46.719Z,81.4876
2023-04-28T08:38:49.834Z,81.4441
2023-04-28T08:39:52.649Z,81.5288
2023-04-28T08:40:55.602Z,81.0565
2023-04-28T08:41:58.520Z,80.5383
2023-04-28T08:43:01.644Z,80.3122
2023-04-28T08:44:04.386Z,80.4646
2023-04-28T08:45:07.349Z,80.1629
2023-04-28T08:46:10.316Z,80.4236
2023-04-28T08:47:13.231Z,80.9776
2023-04-28T08:48:16.202Z,81.4269
2023-04-28T08:49:19.140Z,80.7398
2023-04-28T08:50:22.179Z,80.5770
2023-04-28T08:51:25.061Z,80.1794
2023-04-28T08:52:28.006Z,80.1571
2023-04-28T08:53:30.907Z,80.1214
2023-04-28T08:54:34.017Z,80.4177
2023-04-28T08:55:36.807Z,78.9187
2023-04-28T08:56:39.903Z,78.7161
2023-04-28T08:57:42.671Z,79.7987
2023-04-28T08:58:45.637Z,79.8434
2023-04-28T08:59:48.631Z,80.4683
2023-04-28T09:00:51.671Z,81.3417
2023-04-28T09:01:54.736Z,80.3688
2023-04-28T09:02:57.581Z,80.2153
2023-04-28T09:04:00.531Z,80.9179
2023-04-28T09:05:03.648Z,81.3988
2023-04-28T09:06:06.299Z,79.9769
2023-04-28T09:07:09.262Z,80.4846
2023-04-28T09:08:12.156Z,81.0882
2023-04-28T09:09:15.154Z,80.7729
2023-04-28T09:10:18.136Z,80.5766
2023-04-28T09:11:21.041Z,80.8869
2023-04-28T09:12:23.955Z,80.8891
2023-04-28T09:13:26.884Z,80.4436
2023-04-28T09:14:29.819Z,79.9561
2023-04-28T09:15:34.048Z,79.9762
2023-04-28T09:16:35.787Z,80.3318
2023-04-28T09:17:38.675Z,80.2148
2023-04-28T09:18:41.757Z,79.3641
2023-04-28T09:19:44.558Z,79.4013
2023-04-28T09:20:47.498Z,79.0970
2023-04-28T09:21:50.547Z,78.6087
2023-04-28T09:22:53.491Z,79.8527
2023-04-28T09:23:56.369Z,80.5802
2023-04-28T09:24:59.303Z,80.0129
2023-04-28T09:26:02.208Z,79.0370
2023-04-28T09:27:05.178Z,78.8492
2023-04-28T09:28:08.141Z,79.3650
2023-04-28T09:29:11.107Z,79.4225
2023-04-28T09:30:14.043Z,79.0288
2023-04-28T09:31:16.957Z,79.3725
2023-04-28T09:32:20.020Z,78.8990
2023-04-28T09:33:22.924Z,78.1298
2023-04-28T09:34:25.786Z,78.2519
2023-04-28T09:35:28.757Z,78.7550
2023-04-28T09:36:31.705Z,78.8741
2023-04-28T09:37:34.649Z,80.1157
2023-04-28T09:38:37.771Z,79.6543
2023-04-28T09:39:40.599Z,79.4030
2023-04-28T09:40:43.497Z,79.6087
2023-04-28T09:41:46.392Z,79.2214
2023-04-28T09:42:49.463Z,78.8064
2023-04-28T09:43:52.314Z,78.3715
2023-04-28T09:44:55.224Z,78.4165
2023-04-28T09:45:58.254Z,78.2841
2023-04-28T09:47:01.109Z,78.9354
2023-04-28T09:48:04.086Z,78.7456
2023-04-28T09:49:07.005Z,79.2464
2023-04-28T09:50:09.929Z,79.9568
2023-04-28T09:51:13.265Z,80.3083
2023-04-28T09:52:15.824Z,80.4707
2023-04-28T09:53:18.773Z,80.9605
2023-04-28T09:54:21.739Z,79.2844
2023-04-28T09:55:24.715Z,79.5568
2023-04-28T09:56:27.593Z,80.7412
2023-04-28T09:57:30.538Z,80.4849
2023-04-28T09:58:33.489Z,80.4682
2023-04-28T09:59:36.475Z,80.8790
2023-04-28T10:00:39.365Z,80.6963
2023-04-28T10:01:42.362Z,80.7735
2023-04-28T10:02:45.524Z,80.2409
2023-04-28T10:03:48.262Z,79.3960
2023-04-28T10:04:51.402Z,80.1968
2023-04-28T10:05:54.073Z,80.7242
2023-04-28T10:06:57.070Z,80.4577
2023-04-28T10:08:00.031Z,80.8693
2023-04-28T10:09:03.143Z,80.9706
2023-04-28T10:10:06.004Z,80.4329
2023-04-28T10:11:08.876Z,80.7563
2023-04-28T10:12:11.788Z,81.2269
2023-04-28T10:13:14.770Z,81.6724
2023-04-28T10:14:17.692Z,81.2218
2023-04-28T10:15:20.641Z,80.9520
2023-04-28T10:16:23.610Z,81.5223
2023-04-28T10:17:26.724Z,81.0769
2023-04-28T10:18:29.524Z,81.0900
2023-04-28T10:19:32.548Z,81.1461
2023-04-28T10:20:35.555Z,81.3585
2023-04-28T10:21:38.353Z,81.2418
2023-04-28T10:22:41.293Z,82.7342
2023-04-28T10:23:44.261Z,82.3434
2023-04-28T10:24:47.202Z,81.4076
2023-04-28T10:25:50.143Z,81.7427
2023-04-28T10:26:53.108Z,81.2248
2023-04-28T10:27:56.087Z,81.3647
2023-04-28T10:28:59.002Z,82.2588
2023-04-28T10:30:01.970Z,81.8886
2023-04-28T10:31:04.920Z,82.0874
2023-04-28T10:32:07.862Z,81.9186
2023-04-28T10:33:10.941Z,81.6112
2023-04-28T10:34:13.769Z,80.9489
2023-04-28T10:35:16.710Z,79.4396
2023-04-28T10:36:27.025Z,79.2952
2023-04-28T10:37:22.624Z,78.6469
2023-04-28T10:38:25.572Z,78.8458
2023-04-28T10:39:28.486Z,80.8672
2023-04-28T10:40:31.493Z,80.4504
2023-04-28T10:41:34.365Z,79.7078
2023-04-28T10:42:37.347Z,79.4070
2023-04-28T10:43:40.346Z,79.4394
2023-04-28T10:44:43.213Z,79.0863
2023-04-28T10:45:46.355Z,78.0236
2023-04-28T10:46:49.236Z,78.1261
2023-04-28T10:47:52.102Z,78.1423
2023-04-28T10:48:54.994Z,78.0897
2023-04-28T10:49:57.930Z,78.4016
2023-04-28T10:51:00.876Z,78.9900
2023-04-28T10:52:03.872Z,78.9140
2023-04-28T10:53:06.819Z,78.5149
2023-04-28T10:54:09.694Z,78.4951
2023-04-28T10:55:21.487Z,78.4818
2023-04-28T10:56:15.699Z,78.6982
2023-04-28T10:57:18.532Z,78.8074
2023-04-28T10:58:21.507Z,78.8798
2023-04-28T10:59:24.425Z,78.5619
2023-04-28T11:00:27.372Z,78.4347
2023-04-28T11:01:30.368Z,78.0306
2023-04-28T11:02:33.340Z,77.5530
2023-04-28T11:03:36.350Z,77.7162
2023-04-28T11:04:39.442Z,77.9858
2023-04-28T11:05:42.095Z,78.0899
2023-04-28T11:06:45.048Z,78.2534
2023-04-28T11:07:47.987Z,78.6172
2023-04-28T11:08:50.944Z,78.1885
2023-04-28T11:09:53.965Z,78.8472
2023-04-28T11:10:56.819Z,78.5999
2023-04-28T11:11:59.805Z,78.3092
2023-04-28T11:13:02.706Z,78.4903
2023-04-28T11:14:05.804Z,78.3510
2023-04-28T11:15:08.574Z,78.1269
2023-04-28T11:16:11.584Z,77.9560
2023-04-28T11:17:14.484Z,77.6293
2023-04-28T11:18:17.428Z,78.0632
2023-04-28T11:19:20.354Z,78.3050
2023-04-28T11:20:23.313Z,79.4365
2023-04-28T11:21:26.234Z,79.1869
2023-04-28T11:22:29.244Z,78.4606
2023-04-28T11:23:32.129Z,79.7528
2023-04-28T11:24:35.239Z,78.4564
2023-04-28T11:25:38.016Z,78.4581
2023-04-28T11:26:41.009Z,79.9317
2023-04-28T11:27:43.923Z,79.0766
2023-04-28T11:28:46.903Z,78.6952
2023-04-28T11:29:49.874Z,78.2686
2023-04-28T11:30:54.152Z,78.2146
2023-04-28T11:31:55.694Z,78.3203
2023-04-28T11:32:58.690Z,78.6357
2023-04-28T11:34:01.600Z,78.4028
2023-04-28T11:35:04.753Z,78.7414
2023-04-28T11:36:07.442Z,78.4665
2023-04-28T11:37:10.413Z,78.2442
2023-04-28T11:38:13.427Z,78.2706
2023-04-28T11:39:16.333Z,77.7232
2023-04-28T11:40:19.584Z,78.2854
2023-04-28T11:41:22.258Z,77.7329
2023-04-28T11:42:25.288Z,77.4256
2023-04-28T11:43:36.543Z,77.2048
2023-04-28T11:44:31.720Z,77.1252
2023-04-28T11:45:34.011Z,76.9484
2023-04-28T11:46:37.015Z,77.1973
2023-04-28T11:47:40.034Z,77.6799
2023-04-28T11:48:42.832Z,77.3209
2023-04-28T11:49:45.755Z,77.0806
2023-04-28T11:50:48.696Z,77.5886
2023-04-28T11:51:51.941Z,77.0713
2023-04-28T11:52:55.070Z,77.2703
2023-04-28T11:53:57.761Z,77.2490
2023-04-28T11:55:00.742Z,76.6874
2023-04-28T11:56:03.399Z,77.3980
2023-04-28T11:57:06.400Z,76.8771
2023-04-28T11:58:09.308Z,77.2365
2023-04-28T11:59:12.229Z,76.9462
2023-04-28T12:00:15.283Z,77.2419
2023-04-28T12:01:18.096Z,77.2142
2023-04-28T12:02:21.243Z,77.0407
2023-04-28T12:03:24.124Z,77.1481
2023-04-28T12:04:27.165Z,77.4861
2023-04-28T12:05:29.848Z,76.7538
2023-04-28T12:06:32.893Z,77.4461
2023-04-28T12:07:35.721Z,77.3259
2023-04-28T12:08:38.663Z,77.3568
2023-04-28T12:09:41.844Z,77.8636
2023-04-28T12:10:44.541Z,78.4217
2023-04-28T12:11:47.469Z,77.7802
2023-04-28T12:12:53.110Z,77.9542
2023-04-28T12:13:53.620Z,78.0556
2023-04-28T12:14:56.573Z,78.3815
2023-04-28T12:15:59.302Z,78.0670
2023-04-28T12:17:02.205Z,77.3943
2023-04-28T12:18:05.235Z,77.8635
2023-04-28T12:19:08.085Z,78.1099
2023-04-28T12:20:11.079Z,77.8265
2023-04-28T12:21:13.992Z,77.6270
2023-04-28T12:22:16.935Z,77.8437
2023-04-28T12:23:19.866Z,77.6508
2023-04-28T12:24:22.789Z,78.1814
2023-04-28T12:25:25.785Z,78.0913
2023-04-28T12:26:28.697Z,77.8448
2023-04-28T12:27:31.614Z,77.7647
2023-04-28T12:28:34.550Z,79.6971
2023-04-28T12:29:37.509Z,78.8320
2023-04-28T12:30:40.448Z,77.2869
2023-04-28T12:31:43.402Z,76.2755
2023-04-28T12:32:46.390Z,75.8498
2023-04-28T12:33:49.321Z,75.8126
2023-04-28T12:34:52.243Z,75.6353
2023-04-28T12:35:55.490Z,76.6074
2023-04-28T12:36:58.142Z,76.2685
2023-04-28T12:38:01.086Z,74.1617
2023-04-28T12:39:04.192Z,75.4094
2023-04-28T12:40:06.992Z,75.2662
2023-04-28T12:41:10.025Z,74.0102